To NAV CANADA Home Page Login to a new session Search on AWWS site Feedback and Comments Disclaimer Vers la page française équivalente Tips FAQ What's new on the site To the Forecasts and Observations / NOTAM section To "File a Flight Plan" website Publications and other links Update of the User's profile FIC Telephone Numbers My Weather Data Folder Route Weather Data Regional Weather Data Local Weather Data To the Forecasts and Observations / NOTAM section
Request Generated 01/17/2017 at 04:57:21 UTC . Weather information available at that time is displayed.

METAR/TAF

HIGH LEVEL/AB    (show WxCam)

METAR CYOJ 170400Z 17003KT 15SM BKN150 00/M02 A2911 RMK AC7 SLP879=
METAR CYOJ 170300Z 19003KT 150V220 15SM BKN260 M00/M03 A2914 RMK CI7
SLP889=
METAR CYOJ 170200Z 16003KT 15SM BKN260 01/M03 A2917 RMK CI6 SLP899=

TAF CYOJ 170038Z 1701/1713 VRB03KT P6SM SCT100 BKN260
RMK NXT FCST BY 170700Z=
Your time UTC time
Weather data provided by Environment Canada and NAV CANADA